Date,TemperatureHighF,TemperatureAvgF,TemperatureLowF,DewpointHighF,DewpointAvgF,DewpointLowF,HumidityHigh,HumidityAvg,HumidityLow,PressureMaxIn,PressureMinIn,WindSpeedMaxMPH,WindSpeedAvgMPH,GustSpeedMaxMPH,PrecipitationSumIn
2013-1-2,38.0,34.6,31.0,14.0,7.6,3.0,40,31,26,30.20,30.09,7,5,14,0.00
2013-1-3,31.0,27.1,24.0,23.0,12.9,4.0,91,57,36,30.17,30.03,8,6,14,0.00
2013-1-4,39.0,31.2,25.0,25.0,22.5,17.0,97,71,53,30.20,30.11,6,3,10,0.00
2013-1-5,31.0,26.9,24.0,24.0,19.5,17.0,95,74,56,30.10,29.99,5,4,10,0.00
2013-1-6,29.0,24.6,22.0,24.0,19.2,7.0,96,81,50,30.06,29.97,5,2,8,0.00
2013-1-7,30.0,27.8,23.0,30.0,26.9,22.0,97,96,92,30.13,30.04,7,3,11,0.00
2013-1-8,32.0,30.2,29.0,31.0,29.6,28.0,97,97,97,30.17,30.04,0,0,0,0.00
2013-1-9,31.0,22.9,13.0,30.0,21.5,11.0,97,94,91,30.01,29.69,14,7,23,0.00
2013-1-10,15.0,13.1,11.0,13.0,10.9,9.0,91,91,90,29.79,29.70,6,4,14,0.00
2013-1-11,13.0,10.5,7.0,10.0,8.2,5.0,90,89,88,29.93,29.78,6,3,14,0.00
2013-1-12,16.0,10.4,4.0,13.0,7.5,1.0,90,87,84,29.99,29.91,2,1,8,0.00
2013-1-13,17.0,12.5,9.0,6.0,3.7,0.0,84,67,54,30.09,29.98,3,1,13,0.00
2013-1-14,37.0,24.3,12.0,24.0,12.6,3.0,71,61,38,30.30,30.10,4,2,13,0.00
2013-1-15,45.0,39.3,34.0,14.0,10.1,-4.0,42,30,14,30.57,30.31,4,2,13,0.00
2013-1-16,46.0,41.0,37.0,7.0,1.2,-7.0,25,18,12,30.55,30.45,5,2,11,0.00
2013-1-17,48.0,42.5,40.0,9.0,6.7,3.0,26,22,17,30.45,30.33,5,4,10,0.00
2013-1-18,42.0,40.4,38.0,2.0,-0.4,-3.0,19,17,16,30.33,30.29,6,5,12,0.00
2013-1-19,46.0,42.6,39.0,0.0,-7.1,-11.0,17,11,9,30.34,30.28,6,5,14,0.00
2013-1-20,48.0,41.5,38.0,-6.0,-9.6,-14.0,13,10,6,30.32,30.26,7,5,10,0.00
2013-1-21,57.0,46.2,41.0,-1.0,-11.2,-23.0,16,8,4,30.28,30.17,5,4,10,0.00
2013-1-22,46.0,40.2,34.0,3.0,-2.2,-10.0,26,17,10,30.17,29.97,7,6,13,0.00
2013-1-23,33.0,30.1,27.0,30.0,19.1,5.0,97,69,29,30.00,29.85,9,7,16,0.00
2013-1-24,32.0,30.6,29.0,31.0,29.8,28.0,97,97,97,30.12,30.01,7,6,12,0.00
2013-1-25,32.0,31.3,29.0,31.0,30.7,29.0,98,97,97,30.12,29.86,8,6,15,0.00
2013-1-26,29.0,20.7,16.0,29.0,19.4,14.0,97,94,92,29.85,29.78,8,5,14,0.00
2013-1-27,19.0,16.8,15.0,18.0,15.1,13.0,93,92,92,29.93,29.84,4,2,7,0.00
2013-1-28,21.0,18.8,17.0,20.0,17.5,15.0,94,93,92,30.05,29.86,4,3,7,0.00
2013-1-29,29.0,23.7,20.0,29.0,22.6,19.0,97,95,90,30.32,30.06,6,3,14,0.00
2013-1-30,34.0,29.3,24.0,29.0,23.3,10.0,97,79,38,30.38,30.31,6,4,14,0.00
2013-1-31,40.0,35.2,27.0,15.0,7.4,-2.0,60,31,20,30.26,30.22,5,2,8,0.00
2013-2-1,44.0,37.6,34.0,26.0,19.5,8.0,72,49,28,30.27,30.21,5,2,9,0.00
2013-2-2,43.0,38.2,34.0,17.0,14.1,11.0,42,37,26,30.29,30.22,5,3,9,0.00
2013-2-3,42.0,35.2,32.0,20.0,12.5,6.0,57,40,22,30.23,30.15,6,4,10,0.00
2013-2-4,41.0,33.8,30.0,15.0,8.1,3.0,49,34,22,30.15,29.93,9,6,14,0.00
2013-2-5,32.0,25.3,20.0,23.0,16.8,7.0,95,74,33,29.93,29.86,9,7,15,0.00
2013-2-6,28.0,22.2,19.0,27.0,21.0,18.0,96,94,93,29.97,29.81,6,5,12,0.00
2013-2-7,21.0,18.2,15.0,20.0,16.7,13.0,94,93,91,29.81,29.75,6,4,13,0.00
2013-2-8,21.0,16.7,15.0,19.0,14.6,12.0,92,91,88,29.94,29.81,4,2,10,0.00
2013-2-9,31.0,22.7,15.0,22.0,15.0,3.0,86,72,54,30.03,29.92,6,3,13,0.00
2013-2-10,33.0,25.2,19.0,18.0,16.6,13.0,93,70,50,30.10,30.02,5,3,10,0.00
2013-2-11,36.0,29.4,24.0,25.0,13.3,2.0,89,54,24,30.20,30.09,7,3,14,0.00
2013-2-12,33.0,26.9,22.0,25.0,20.4,15.0,93,77,58,30.34,30.21,5,3,11,0.00
2013-2-13,34.0,30.9,27.0,26.0,22.6,16.0,96,72,51,30.33,30.29,6,3,13,0.00
2013-2-14,40.0,33.3,29.0,26.0,23.8,21.0,84,68,51,30.40,30.32,5,3,13,0.00
2013-2-15,47.0,37.6,31.0,26.0,20.3,16.0,81,51,29,30.40,30.27,7,5,14,0.00
2013-2-16,36.0,29.6,19.0,26.0,21.0,11.0,93,70,59,30.27,30.03,9,6,16,0.00
2013-2-17,35.0,23.7,14.0,12.0,0.1,-33.0,86,42,5,30.03,29.91,4,3,11,0.00
2013-2-18,28.0,23.1,17.0,17.0,3.5,-26.0,94,51,7,29.91,29.59,7,6,13,0.00
2013-2-19,21.0,18.0,16.0,19.0,16.3,14.0,93,92,91,29.69,29.43,6,4,12,0.00
2013-2-20,21.0,17.5,15.0,19.0,15.7,13.0,92,92,91,29.86,29.75,7,4,12,0.00
2013-2-21,19.0,16.9,15.0,17.0,15.1,13.0,92,92,91,30.02,29.86,6,4,12,0.00
2013-2-22,27.0,21.4,18.0,26.0,20.0,16.0,96,94,92,30.05,29.80,10,7,21,0.00
2013-2-23,20.0,15.5,11.0,18.0,13.5,9.0,93,91,89,30.14,29.87,7,4,16,0.00
2013-2-24,33.0,23.0,13.0,32.0,21.6,10.0,96,94,90,30.18,30.04,7,4,12,0.00
2013-2-25,24.0,19.1,15.0,23.0,17.5,13.0,95,93,91,30.10,29.95,10,7,17,0.00
2013-2-26,36.0,21.6,13.0,24.0,12.9,5.0,91,69,43,30.16,30.10,5,3,12,0.00
2013-2-27,32.0,25.8,21.0,27.0,18.0,7.0,96,73,51,30.20,30.14,7,6,13,0.00
2013-2-28,32.0,30.6,28.0,32.0,29.9,28.0,97,97,96,30.42,30.20,7,6,14,0.00
2013-3-1,46.0,37.0,29.0,37.0,30.5,3.0,97,80,19,30.42,30.33,5,3,10,0.00
2013-3-2,41.0,35.3,28.0,29.0,21.3,6.0,96,60,23,30.32,30.06,6,5,13,0.00
2013-3-3,31.0,25.9,23.0,27.0,23.7,20.0,96,91,70,30.04,29.98,5,3,10,0.00
2013-3-4,41.0,32.3,23.0,26.0,11.6,-22.0,85,48,8,30.00,29.85,6,4,11,0.00
2013-3-5,30.0,26.0,23.0,27.0,24.5,22.0,97,94,84,29.83,29.50,7,6,13,0.00
2013-3-6,24.0,20.2,17.0,23.0,18.7,16.0,95,93,92,29.78,29.40,12,8,22,0.00
2013-3-7,25.0,19.8,16.0,23.0,17.8,14.0,94,91,88,29.83,29.78,5,3,9,0.00
2013-3-8,29.0,22.8,20.0,21.0,17.7,14.0,91,81,52,30.02,29.80,4,2,11,0.00
2013-3-9,37.0,28.0,20.0,18.0,13.5,3.0,89,57,28,30.39,30.03,4,3,10,0.00
2013-3-10,44.0,39.5,35.0,30.0,23.5,1.0,83,56,18,30.39,30.34,4,3,10,0.00
2013-3-11,43.0,36.3,32.0,32.0,27.9,13.0,97,73,38,30.34,30.22,4,3,8,0.00
2013-3-12,47.0,39.8,34.0,27.0,17.3,9.0,74,43,21,30.22,30.17,6,5,11,0.00
2013-3-13,50.0,42.6,37.0,22.0,10.0,-17.0,42,27,6,30.27,30.19,6,4,10,0.00
2013-3-14,45.0,40.6,33.0,30.0,23.6,16.0,82,52,30,30.20,30.12,9,6,15,0.00
2013-3-15,40.0,34.6,31.0,30.0,26.8,20.0,91,73,55,30.19,30.14,5,3,11,0.00
2013-3-16,33.0,27.7,24.0,29.0,25.8,23.0,97,93,66,30.13,29.91,11,7,20,0.00
2013-3-17,24.0,20.1,16.0,23.0,18.7,14.0,95,93,92,30.04,29.95,9,6,15,0.00
2013-3-18,33.0,25.3,18.0,29.0,22.8,16.0,95,89,69,30.05,30.00,5,3,6,0.00
2013-3-19,37.0,31.5,28.0,31.0,25.1,16.0,97,77,57,30.03,29.79,8,5,14,0.00
2013-3-20,32.0,27.7,18.0,31.0,27.0,16.0,97,96,92,29.89,29.66,12,10,22,0.00
2013-3-21,22.0,15.7,12.0,21.0,13.9,10.0,94,92,90,30.04,29.93,7,2,13,0.00
2013-3-22,20.0,14.5,11.0,18.0,12.5,8.0,93,91,89,30.07,29.97,0,0,0,0.00
2013-3-23,32.0,21.3,11.0,32.0,19.8,8.0,97,93,89,30.08,30.03,4,1,10,0.00
2013-3-24,38.0,30.0,23.0,30.0,25.4,22.0,93,83,67,30.07,29.98,4,3,7,0.00
2013-3-25,42.0,35.3,31.0,30.0,22.8,18.0,95,61,42,29.97,29.84,5,3,10,0.00
2013-3-26,36.0,30.4,28.0,31.0,28.9,27.0,97,94,80,29.89,29.83,5,3,9,0.00
2013-3-27,36.0,31.2,28.0,33.0,30.0,27.0,97,95,87,29.92,29.84,5,4,9,0.00
2013-3-28,37.0,32.5,31.0,33.0,31.4,30.0,97,95,83,30.08,29.91,5,4,9,0.00
2013-3-29,45.0,37.0,31.0,34.0,30.9,28.0,97,80,51,30.20,30.08,5,3,8,0.00
2013-3-30,52.0,43.9,36.0,32.0,25.4,-99.9,83,55,31,30.21,30.08,7,4,10,0.00
2013-3-31,41.0,37.7,33.0,36.0,32.0,28.0,97,81,60,30.07,29.96,5,3,11,0.00
2013-4-1,34.0,32.3,31.0,33.0,31.4,30.0,97,96,93,30.12,29.95,4,2,8,0.00
2013-4-2,41.0,35.5,31.0,36.0,33.2,30.0,97,91,78,30.17,30.12,5,4,9,0.00
2013-4-3,45.0,39.9,34.0,36.0,30.4,23.0,88,69,54,30.15,30.01,5,3,8,0.00
2013-4-4,42.0,35.2,31.0,35.0,32.6,30.0,97,90,64,29.99,29.82,9,7,17,0.00
2013-4-5,32.0,29.9,28.0,31.0,29.1,28.0,97,97,96,29.96,29.89,9,8,17,0.00
2013-4-6,31.0,28.8,27.0,31.0,28.1,26.0,97,97,96,29.95,29.80,11,9,20,0.00
2013-4-7,29.0,25.3,19.0,29.0,24.4,18.0,97,96,93,29.79,29.67,14,8,25,0.00
2013-4-8,25.0,19.9,16.0,23.0,17.9,14.0,94,92,87,30.08,29.74,7,4,16,0.00
2013-4-9,39.0,29.0,21.0,34.0,25.2,19.0,93,86,68,30.28,30.09,4,3,11,0.00
2013-4-10,39.0,34.3,27.0,37.0,33.2,25.0,97,95,87,30.28,30.13,9,6,16,0.00
2013-4-11,40.0,31.6,24.0,27.0,17.1,-2.0,93,57,26,30.16,30.04,5,3,11,0.00
2013-4-12,45.0,37.7,31.0,31.0,16.5,-9.0,97,50,12,30.05,29.85,10,7,16,0.00
2013-4-13,31.0,23.2,19.0,30.0,22.0,17.0,97,94,92,29.88,29.82,11,7,19,0.00
2013-4-14,22.0,18.1,13.0,20.0,15.8,11.0,93,90,85,29.88,29.71,5,2,10,0.00
2013-4-15,22.0,19.1,17.0,19.0,17.0,15.0,93,91,88,29.89,29.67,5,4,12,0.00
2013-4-16,25.0,20.2,17.0,21.0,17.4,15.0,92,89,81,30.08,29.91,4,3,11,0.00
2013-4-17,32.0,27.1,20.0,22.0,16.3,9.0,88,65,43,30.30,30.22,5,3,10,0.00
2013-4-18,42.0,32.8,25.0,34.0,27.6,21.0,95,81,61,30.35,30.26,6,4,10,0.00
2013-4-19,34.0,31.7,28.0,33.0,31.1,27.0,97,97,96,30.29,30.16,9,7,17,0.00
2013-4-20,41.0,31.3,24.0,32.0,26.6,19.0,96,83,51,30.22,30.18,4,3,10,0.00
2013-4-21,42.0,36.5,32.0,34.0,25.3,8.0,96,66,30,30.22,30.16,5,4,12,0.00
2013-4-22,41.0,33.0,27.0,28.0,20.1,-7.0,88,61,16,30.25,30.16,4,3,11,0.00
2013-4-23,48.0,32.3,23.0,17.0,8.4,-6.0,71,41,12,30.24,30.09,6,4,10,0.00
2013-4-24,50.0,39.4,30.0,14.0,6.9,-2.0,49,29,11,30.16,30.09,6,4,15,0.00
2013-4-25,53.0,47.9,42.0,29.0,17.7,-2.0,54,32,14,30.22,30.07,4,3,10,0.00
2013-4-26,57.0,50.4,42.0,27.0,21.5,18.0,51,33,21,30.36,30.22,5,3,10,0.00
2013-4-27,54.0,48.0,40.0,27.0,19.8,8.0,57,34,20,30.39,30.27,7,4,16,0.00
2013-4-28,45.0,39.0,35.0,33.0,23.8,4.0,77,55,25,30.25,30.18,6,5,12,0.00
2013-4-29,37.0,33.9,32.0,33.0,28.4,17.0,97,81,48,30.18,30.04,7,6,15,0.00
2013-4-30,36.0,31.3,24.0,20.0,1.7,-14.0,86,33,13,30.21,29.98,6,3,13,0.00
2013-5-1,47.0,33.8,22.0,19.0,12.9,8.0,84,48,22,30.46,30.23,4,3,11,0.00
2013-5-2,58.0,44.6,36.0,25.0,9.7,4.0,41,25,12,30.45,30.35,6,4,11,0.00
2013-5-3,56.0,48.2,41.0,22.0,16.2,12.0,45,28,20,30.35,30.20,4,3,10,0.00
2013-5-4,47.0,42.0,37.0,28.0,24.3,20.0,59,50,33,30.19,29.86,6,4,13,0.00
2013-5-5,52.0,43.8,38.0,31.0,26.9,24.0,63,51,34,29.89,29.81,7,4,18,0.00
2013-5-6,53.0,43.9,39.0,39.0,32.2,28.0,93,65,39,29.97,29.89,4,3,11,0.00
2013-5-7,51.0,42.2,38.0,43.0,38.5,35.0,96,87,58,30.11,29.95,5,3,10,0.00
2013-5-8,54.0,44.8,40.0,41.0,36.2,33.0,94,72,54,30.21,30.07,5,3,12,0.00
2013-5-9,57.0,47.5,41.0,41.0,36.7,34.0,86,67,44,30.31,30.20,4,3,9,0.00
2013-5-10,62.0,55.5,50.0,44.0,34.8,-99.9,69,49,35,30.40,30.32,4,2,9,0.00
2013-5-11,63.0,57.0,51.0,43.0,37.7,-99.9,73,52,37,30.40,30.31,5,4,11,0.00
2013-5-12,60.0,52.8,45.0,43.0,37.4,26.0,88,58,31,30.31,30.21,8,6,14,0.00
2013-5-13,47.0,42.7,36.0,41.0,34.8,30.0,96,73,60,30.20,30.14,9,6,17,0.00
2013-5-14,50.0,40.2,32.0,35.0,29.7,7.0,96,70,25,30.15,30.09,6,5,10,0.00
2013-5-15,45.0,39.6,33.0,36.0,30.1,21.0,97,70,42,30.11,30.02,7,4,13,0.00
2013-5-16,34.0,33.2,33.0,33.0,32.5,32.0,97,97,97,30.01,29.94,6,5,11,0.00
2013-5-17,36.0,31.6,28.0,32.0,23.0,-99.9,97,93,85,30.03,29.90,5,4,11,0.00
2013-5-18,34.0,30.9,28.0,33.0,29.8,25.0,97,96,87,30.21,30.03,7,6,14,0.00
2013-5-19,46.0,36.5,27.0,32.0,29.3,27.0,97,76,51,30.31,30.22,4,3,10,0.00
2013-5-20,55.0,42.9,35.0,36.0,28.9,16.0,86,61,24,30.28,30.02,6,4,12,0.00
2013-5-21,39.0,28.2,18.0,38.0,24.1,16.0,96,85,48,30.00,29.78,10,7,17,0.00
2013-5-22,26.0,20.9,16.0,25.0,19.6,14.0,95,93,91,29.89,29.82,7,6,15,0.00
2013-5-23,32.0,26.5,21.0,31.0,25.3,19.0,96,95,93,29.95,29.85,7,3,14,0.00
2013-5-24,37.0,30.2,25.0,32.0,28.2,24.0,97,92,81,29.99,29.91,7,5,13,0.00
2013-5-25,45.0,36.4,26.0,33.0,24.0,14.0,97,63,38,30.01,29.96,5,4,11,0.00
2013-5-26,36.0,32.7,31.0,34.0,32.0,30.0,97,96,93,30.04,29.93,7,6,13,0.00
2013-5-27,37.0,33.0,31.0,37.0,32.3,30.0,97,97,96,30.02,29.82,11,8,21,0.00
2013-5-28,40.0,33.9,31.0,35.0,31.7,30.0,97,92,73,29.97,29.84,8,5,15,0.00
2013-5-29,35.0,32.5,30.0,33.0,31.6,30.0,97,97,93,29.96,29.75,10,9,18,0.00
2013-5-30,42.0,33.3,25.0,33.0,29.2,24.0,97,86,62,30.17,29.97,5,3,10,0.00
2013-5-31,55.0,45.3,31.0,39.0,22.5,-2.0,88,44,19,30.31,30.17,4,3,8,0.00
2013-6-1,56.0,50.6,44.0,36.0,29.0,6.0,70,44,19,30.29,30.11,5,3,12,0.00
2013-6-2,55.0,46.9,41.0,33.0,25.5,14.0,69,45,23,30.10,30.03,4,3,9,0.00
2013-6-3,63.0,53.4,42.0,35.0,24.7,7.0,53,33,20,30.16,30.06,4,3,8,0.00
2013-6-4,67.0,55.7,45.0,41.0,32.1,27.0,57,42,25,30.23,30.13,5,3,9,0.00
2013-6-5,68.0,60.4,52.0,43.0,32.4,25.0,58,36,23,30.28,30.21,5,3,10,0.00
2013-6-6,67.0,59.6,55.0,48.0,35.4,26.0,71,41,26,30.24,30.18,4,3,10,0.00
2013-6-7,65.0,58.2,53.0,46.0,35.2,20.0,75,44,22,30.30,30.22,5,3,12,0.00
2013-6-8,71.0,61.5,54.0,41.0,21.4,0.0,53,24,8,30.29,30.24,5,4,9,0.00
2013-6-9,68.0,61.4,54.0,42.0,32.4,21.0,59,34,17,30.24,30.06,5,3,11,0.00
2013-6-10,59.0,53.4,42.0,37.0,26.7,12.0,66,37,17,30.05,29.95,7,4,13,0.00
2013-6-11,44.0,39.1,32.0,33.0,29.8,21.0,94,71,40,30.07,29.94,7,5,13,0.00
2013-6-12,42.0,37.1,31.0,32.0,25.8,20.0,93,64,49,30.11,30.04,4,3,11,0.00
2013-6-13,36.0,32.1,28.0,31.0,28.1,21.0,95,85,64,30.25,30.10,6,4,14,0.00
2013-6-14,41.0,34.2,31.0,29.0,24.0,18.0,91,68,44,30.23,30.17,5,3,9,0.00
2013-6-15,58.0,53.9,47.0,40.0,30.1,21.0,74,43,23,30.12,30.07,6,4,14,0.00
2013-6-16,56.0,49.6,43.0,40.0,35.2,31.0,90,59,37,30.21,30.11,7,4,14,0.00
2013-6-17,53.0,44.7,39.0,39.0,35.6,30.0,92,72,45,30.19,30.05,7,5,15,0.00
2013-6-18,42.0,37.0,31.0,38.0,31.9,25.0,96,83,49,30.03,29.92,6,5,14,0.00
2013-6-19,32.0,30.4,29.0,31.0,29.7,28.0,97,97,96,30.07,29.90,7,5,14,0.00
2013-6-20,35.0,30.4,28.0,33.0,29.4,27.0,97,95,92,30.06,30.02,4,3,8,0.00
2013-6-22,55.0,49.7,42.0,37.0,34.3,25.0,62,55,46,30.14,30.05,5,3,10,0.00
2013-6-23,47.0,44.3,40.0,44.0,40.9,35.0,95,87,62,30.04,29.79,8,4,15,0.00
2013-6-24,41.0,38.6,35.0,40.0,37.6,34.0,96,96,95,29.82,29.71,7,5,14,0.00
2013-6-25,42.0,40.1,38.0,40.0,38.9,37.0,96,96,94,29.98,29.80,8,6,15,0.00
2013-6-26,49.0,45.1,40.0,47.0,43.7,39.0,96,95,91,30.20,29.98,8,6,14,0.00
2013-6-27,63.0,54.3,46.0,48.0,44.8,42.0,94,72,48,30.41,30.19,8,6,15,0.00
2013-6-28,67.0,60.5,55.0,45.0,42.2,39.0,64,51,44,30.42,30.38,5,4,8,0.00
2013-6-29,67.0,64.2,60.0,52.0,44.8,40.0,68,50,37,30.30,30.30,6,4,14,0.00
2013-6-30,75.0,65.2,56.0,53.0,45.6,34.0,73,52,23,30.29,30.22,6,4,10,0.00
2013-7-1,75.0,68.5,61.0,56.0,46.3,33.0,69,48,21,30.31,30.21,6,4,12,0.00
2013-7-2,78.0,74.5,67.0,57.0,46.6,41.0,70,38,26,30.40,30.36,5,4,10,0.00
2013-7-3,74.0,67.7,59.0,54.0,48.9,43.0,69,52,34,30.37,30.30,5,4,11,0.00
2013-7-4,65.0,58.8,51.0,42.0,36.3,25.0,67,43,26,30.30,30.12,5,4,11,0.00
2013-7-5,64.0,56.5,49.0,40.0,31.5,13.0,64,40,18,30.11,30.05,5,4,10,0.00
2013-7-6,67.0,59.4,51.0,44.0,35.1,21.0,61,42,24,30.07,30.03,5,4,12,0.00
2013-7-7,66.0,60.4,53.0,45.0,37.6,29.0,71,43,33,30.13,30.05,7,5,14,0.00
2013-7-8,69.0,59.8,51.0,45.0,35.3,18.0,72,41,20,30.29,30.12,4,3,11,0.00
2013-7-9,72.0,64.7,57.0,48.0,38.2,31.0,63,39,24,30.33,30.28,5,3,10,0.00
2013-7-10,68.0,60.4,55.0,46.0,34.8,-99.9,62,42,25,30.31,30.16,5,3,11,0.00
2013-7-11,63.0,56.1,50.0,41.0,36.4,25.0,69,49,24,30.17,30.10,7,4,15,0.00
2013-7-12,57.0,50.7,45.0,39.0,32.7,23.0,67,51,26,30.13,30.06,7,5,14,0.00
2013-7-13,64.0,53.7,45.0,41.0,34.2,28.0,70,48,27,30.24,30.14,5,3,12,0.00
2013-7-14,68.0,59.1,51.0,43.0,33.7,25.0,70,39,27,30.28,30.22,5,4,10,0.00
2013-7-15,72.0,62.4,56.0,43.0,33.4,24.0,57,35,17,30.22,30.09,5,3,8,0.00
2013-7-16,66.0,59.6,52.0,46.0,35.6,29.0,75,41,29,30.19,30.07,5,4,11,0.00
2013-7-17,67.0,57.9,50.0,41.0,31.2,23.0,68,38,20,30.36,30.20,5,4,9,0.00
2013-7-18,72.0,62.3,54.0,46.0,36.9,25.0,60,40,19,30.37,30.32,5,4,10,0.00
2013-7-19,74.0,64.5,57.0,44.0,34.1,24.0,56,33,21,30.34,30.27,5,4,11,0.00
2013-7-20,76.0,65.4,59.0,44.0,34.0,-99.9,47,32,21,30.28,30.20,5,4,10,0.00
2013-7-21,77.0,71.5,63.0,40.0,30.2,17.0,36,23,10,30.20,30.16,4,3,12,0.00
2013-7-22,75.0,71.2,64.0,43.0,27.6,18.0,43,21,11,30.26,30.19,5,4,10,0.00
2013-7-23,73.0,67.1,61.0,42.0,32.3,17.0,40,28,16,30.31,30.27,6,4,11,0.00
2013-7-24,70.0,65.8,61.0,41.0,34.3,20.0,42,31,17,30.32,30.28,4,3,8,0.00
2013-7-25,75.0,69.6,64.0,45.0,36.3,26.0,43,30,21,30.36,30.30,4,3,9,0.00
2013-7-26,73.0,67.1,62.0,43.0,38.7,34.0,40,35,32,30.39,30.34,5,4,15,0.00
2013-7-27,67.0,62.2,56.0,41.0,31.7,22.0,50,32,20,30.37,30.17,4,3,11,0.00
2013-7-28,63.0,57.0,51.0,37.0,23.3,11.0,48,28,15,30.17,30.09,4,3,9,0.00
2013-7-29,64.0,56.1,51.0,39.0,30.6,13.0,59,39,19,30.19,30.07,7,4,15,0.00
2013-7-30,64.0,57.5,49.0,37.0,29.0,10.0,48,34,19,30.31,30.19,6,4,11,0.00
2013-7-31,61.0,57.6,50.0,44.0,34.6,28.0,65,42,29,30.30,30.26,5,3,11,0.00
2013-8-1,52.0,46.7,38.0,39.0,35.4,30.0,89,66,42,0.00,40.00,7,5,14,0.00
2013-8-2,56.0,48.5,38.0,41.0,34.8,27.0,84,59,41,30.21,30.19,4,2,10,0.00
2013-8-3,62.0,54.6,48.0,43.0,36.2,27.0,72,51,28,30.24,30.18,5,3,8,0.00
2013-8-4,66.0,58.6,51.0,42.0,36.3,28.0,61,44,24,30.24,30.21,6,4,10,0.00
2013-8-5,68.0,62.0,55.0,43.0,37.6,34.0,63,41,28,30.26,30.21,4,2,9,0.00
2013-8-6,70.0,63.5,58.0,45.0,39.2,35.0,52,41,29,30.26,30.21,5,3,11,0.00
2013-8-7,59.0,53.9,47.0,42.0,39.3,35.0,80,58,43,30.27,30.21,7,4,13,0.00
2013-8-8,61.0,54.9,50.0,42.0,38.0,34.0,62,53,38,30.21,30.15,4,3,9,0.00
2013-8-9,59.0,53.7,50.0,40.0,38.0,33.0,67,56,41,30.16,30.09,6,2,13,0.00
2013-8-10,53.0,48.2,43.0,44.0,40.4,36.0,91,74,59,30.18,30.11,5,3,12,0.00
2013-8-11,59.0,50.0,43.0,43.0,38.5,34.0,82,66,39,30.20,30.16,6,4,12,0.00
2013-8-12,61.0,54.5,48.0,43.0,38.9,27.0,77,56,35,30.25,30.16,5,4,12,0.00
2013-8-13,67.0,58.8,53.0,46.0,34.3,-99.9,71,42,26,30.28,30.23,5,3,10,0.00
2013-8-14,66.0,59.6,54.0,44.0,37.8,31.0,68,46,30,30.24,30.19,7,4,13,0.00
2013-8-15,66.0,56.4,52.0,46.0,33.3,-99.9,72,46,31,30.21,30.17,7,4,14,0.00
2013-8-16,65.0,56.2,53.0,50.0,42.1,-99.9,83,65,45,30.27,30.19,6,3,15,0.00
2013-8-17,65.0,57.1,52.0,49.0,44.1,-99.9,87,65,48,30.28,30.24,6,3,12,0.00
2013-8-18,72.0,64.1,54.0,48.0,36.7,22.0,63,38,20,30.33,30.26,4,3,10,0.00
2013-8-19,72.0,61.9,59.0,46.0,27.4,-99.9,61,32,18,30.34,30.27,5,3,10,0.00
2013-8-20,71.0,64.3,57.0,46.0,36.8,15.0,51,37,14,30.26,30.22,5,4,9,0.00
2013-8-21,72.0,63.2,54.0,47.0,31.6,22.0,74,31,21,30.27,30.19,5,3,9,0.00
2013-8-22,61.0,54.9,44.0,43.0,40.2,33.0,90,59,34,30.22,30.11,7,4,14,0.00
2013-8-23,60.0,53.6,47.0,47.0,39.5,34.0,94,60,42,30.13,30.04,6,4,12,0.00
2013-8-24,58.0,49.7,45.0,45.0,38.5,-99.9,94,69,45,30.05,29.99,6,4,12,0.00
2013-8-25,49.0,45.8,41.0,45.0,42.2,39.0,94,87,78,30.06,30.02,6,4,16,0.00
2013-8-26,53.0,47.2,43.0,42.0,40.0,38.0,94,77,57,30.15,30.04,8,5,14,0.00
2013-8-27,56.0,48.6,46.0,40.0,38.2,35.0,76,67,46,30.12,30.07,4,4,9,0.00
2013-8-28,64.0,57.4,52.0,43.0,40.1,38.0,67,52,37,30.13,30.08,5,4,11,0.00
2013-8-29,59.0,53.3,48.0,46.0,42.4,39.0,91,67,52,30.26,30.09,8,5,16,0.00
2013-8-30,64.0,54.7,47.0,47.0,40.2,28.0,94,63,25,30.31,30.25,6,4,12,0.00
2013-8-31,70.0,60.9,55.0,47.0,37.1,-99.9,64,44,28,30.25,30.15,5,3,9,0.00
2013-9-1,68.0,58.1,50.0,46.0,37.1,29.0,68,47,22,30.15,30.07,6,4,12,0.00
2013-9-2,60.0,52.0,46.0,46.0,39.5,34.0,94,63,48,30.10,30.03,6,4,13,0.00
2013-9-3,59.0,50.2,45.0,44.0,41.6,38.0,94,74,49,30.16,30.06,5,4,11,0.00
2013-9-4,60.0,51.6,45.0,45.0,38.0,32.0,92,61,39,30.20,30.12,6,3,11,0.00
2013-9-5,50.0,43.7,38.0,44.0,40.9,37.0,95,90,71,30.15,30.08,6,4,14,0.00
2013-9-6,57.0,44.7,37.0,45.0,39.0,36.0,97,81,50,30.28,30.16,5,3,10,0.00
2013-9-7,64.0,55.1,49.0,45.0,39.0,-99.9,81,58,36,30.24,30.19,5,3,9,0.00
2013-9-8,66.0,59.2,52.0,41.0,37.5,33.0,66,45,29,30.25,30.20,6,3,11,0.00
2013-9-9,68.0,58.3,49.0,40.0,32.4,27.0,65,39,22,30.24,30.18,6,3,11,0.00
2013-9-10,70.0,61.0,55.0,40.0,34.5,28.0,53,39,23,30.20,30.16,5,4,10,0.00
2013-9-11,72.0,64.2,58.0,40.0,31.2,25.0,42,30,17,30.27,30.20,6,3,9,0.00
2013-9-12,69.0,63.1,59.0,48.0,37.6,33.0,55,39,26,30.27,30.22,5,3,10,0.00
2013-9-13,70.0,63.5,58.0,40.0,33.0,28.0,44,32,22,30.23,30.11,5,3,11,0.00
2013-9-14,70.0,63.1,57.0,38.0,31.3,23.0,40,30,24,30.11,30.03,5,3,9,0.00
2013-9-15,63.0,56.2,43.0,43.0,38.8,31.0,92,55,32,30.02,29.96,7,4,13,0.00
2013-9-16,54.0,45.7,40.0,40.0,37.4,33.0,95,75,47,30.08,29.96,7,4,13,0.00
2013-9-17,46.0,38.1,33.0,40.0,36.1,33.0,96,92,70,30.02,29.86,6,4,14,0.00
2013-9-18,45.0,36.9,32.0,34.0,31.4,29.0,96,82,55,30.11,30.02,3,2,10,0.00
2013-9-19,61.0,51.6,44.0,29.0,23.6,18.0,51,34,23,30.11,30.00,6,4,13,0.00
2013-9-20,54.0,46.3,34.0,39.0,27.7,17.0,96,53,26,29.98,29.77,8,5,15,0.00
2013-9-21,36.0,34.7,34.0,35.0,32.1,-99.9,96,94,93,29.83,29.73,6,4,12,0.00
2013-9-22,38.0,34.5,32.0,38.0,33.7,31.0,97,96,96,29.95,29.84,10,8,15,0.00
2013-9-23,40.0,38.4,36.0,40.0,38.3,36.0,100,99,97,30.05,29.94,10,7,16,0.00
2013-9-24,36.0,32.2,28.0,36.0,32.2,28.0,100,100,99,30.01,29.81,8,6,15,0.00
2013-9-25,32.0,27.9,25.0,31.0,27.5,25.0,99,98,96,29.92,29.77,6,4,12,0.00
2013-9-26,32.0,28.1,24.0,31.0,27.4,23.0,98,97,95,30.12,29.91,4,2,10,0.00
2013-9-27,39.0,31.9,27.0,36.0,29.2,25.0,97,90,69,30.16,30.11,7,4,11,0.00
2013-9-28,41.0,38.3,36.0,40.0,36.2,-99.9,98,95,93,30.09,29.73,12,9,22,0.00
2013-9-29,39.0,36.8,32.0,39.0,36.6,32.0,100,99,97,29.80,29.66,15,12,34,0.00
2013-9-30,40.0,31.7,27.0,40.0,31.7,27.0,100,100,99,29.98,29.66,14,8,25,0.00
2013-10-1,30.0,27.3,25.0,30.0,26.9,25.0,100,97,93,30.11,30.09,5,3,8,0.00
2013-10-2,32.0,28.2,25.0,27.0,23.9,11.0,96,84,51,30.10,29.97,8,5,14,0.00
2013-10-3,39.0,28.7,22.0,29.0,24.6,20.0,95,85,63,30.31,30.04,6,3,13,0.00
2013-10-4,45.0,34.5,27.0,27.0,21.2,14.0,94,63,28,30.40,30.31,5,2,11,0.00
2013-10-5,59.0,44.9,40.0,19.0,13.5,5.0,41,29,13,30.40,30.37,6,4,9,0.00
2013-10-6,54.0,48.9,39.0,26.0,19.7,9.0,48,32,18,30.33,30.13,7,6,14,0.00
2013-10-7,39.0,34.1,27.0,33.0,21.8,13.0,96,65,36,30.11,30.02,8,6,15,0.00
2013-10-8,34.0,29.0,26.0,29.0,26.5,25.0,96,91,76,30.06,29.85,6,3,12,0.00
2013-10-9,32.0,26.7,23.0,31.0,25.3,21.0,96,94,84,29.91,29.77,6,4,14,0.00
2013-10-10,40.0,34.6,30.0,30.0,22.1,3.0,89,63,21,30.01,29.85,5,2,13,0.00
2013-10-11,42.0,35.4,31.0,29.0,18.6,8.0,79,52,31,30.07,30.02,6,4,10,0.00
2013-10-12,35.0,29.5,28.0,29.0,24.5,-99.9,96,85,51,30.01,29.95,6,4,11,0.00
2013-10-13,36.0,28.9,26.0,29.0,26.3,24.0,96,90,67,30.21,30.01,5,3,12,0.00
2013-10-14,43.0,33.2,28.0,27.0,24.4,21.0,94,72,41,30.28,30.21,5,4,11,0.00
2013-10-17,52.0,43.7,39.0,36.0,27.8,17.0,85,55,26,30.24,30.18,7,3,10,0.00
2013-10-18,54.0,48.3,41.0,31.0,24.1,14.0,55,39,26,30.28,30.23,6,4,9,0.00
2013-10-19,59.0,54.1,49.0,32.0,18.2,-99.9,43,26,14,30.30,30.25,3,2,7,0.00
2013-10-20,57.0,50.2,46.0,27.0,17.6,9.0,46,28,16,30.26,30.21,4,3,9,0.00
2013-10-21,56.0,48.2,43.0,29.0,26.2,24.0,55,43,28,30.26,30.21,7,4,10,0.00
2013-10-22,56.0,51.9,47.0,26.0,24.2,20.0,38,33,28,30.24,30.18,3,2,9,0.00
2013-10-23,58.0,51.4,48.0,26.0,20.4,11.0,40,30,17,30.18,30.14,4,3,9,0.00
2013-10-24,57.0,51.9,49.0,20.0,18.1,14.0,30,26,19,30.20,30.13,4,3,8,0.00
2013-10-25,56.0,51.9,49.0,28.0,26.8,24.0,44,37,30,30.34,30.31,3,2,6,0.00
2013-10-26,56.0,49.8,44.0,26.0,15.9,-99.9,45,27,19,30.35,30.18,5,4,10,0.00
2013-10-27,42.0,33.0,25.0,31.0,24.0,12.0,95,73,30,30.17,29.63,9,5,17,0.00
2013-10-28,29.0,24.3,20.0,28.0,21.7,-99.9,96,94,92,29.76,29.57,6,4,13,0.00
2013-10-29,36.0,27.9,20.0,30.0,24.6,18.0,94,87,73,29.98,29.76,5,3,12,0.00
2013-10-30,40.0,32.4,26.0,32.0,26.3,18.0,96,79,42,30.19,29.99,6,4,10,0.00
2013-10-31,41.0,38.5,36.0,39.0,36.8,31.0,97,94,73,30.27,30.19,5,3,11,0.00
2013-11-1,49.0,42.2,36.0,37.0,31.6,25.0,96,68,45,30.27,30.08,6,4,10,0.00
2013-11-2,41.0,28.8,21.0,32.0,24.7,-99.9,96,88,55,30.05,29.85,11,7,19,0.00
2013-11-3,24.0,21.6,20.0,22.0,19.9,18.0,94,93,92,30.00,29.94,5,3,9,0.00
2013-11-4,29.0,23.9,20.0,27.0,22.3,18.0,95,94,92,30.10,29.96,4,2,9,0.00
2013-11-5,35.0,31.1,27.0,34.0,30.2,25.0,98,97,95,30.24,30.08,6,5,11,0.00
2013-11-6,42.0,37.9,35.0,40.0,36.6,34.0,99,94,83,30.32,30.20,6,4,11,0.00
2013-11-7,37.0,33.0,22.0,35.0,31.4,21.0,98,94,83,30.20,29.92,13,8,25,0.00
2013-11-8,35.0,27.8,21.0,27.0,16.4,-2.0,94,67,23,30.08,30.02,4,2,7,0.00
2013-11-9,45.0,40.3,34.0,35.0,25.0,-99.9,78,60,20,30.10,30.01,6,5,11,0.00
2013-11-10,48.0,43.2,40.0,30.0,21.0,13.0,64,41,27,30.16,30.08,5,4,10,0.00
2013-11-11,46.0,41.6,37.0,16.0,11.5,6.0,38,29,23,30.21,30.13,7,5,13,0.00
2013-11-12,41.0,38.9,35.0,39.0,31.2,13.0,98,78,31,30.38,30.18,8,5,14,0.00
2013-11-13,44.0,38.8,35.0,38.0,26.6,0.0,98,71,15,30.39,30.25,3,3,9,0.00
2013-11-14,39.0,30.5,25.0,25.0,18.7,11.0,91,65,33,30.22,29.91,7,5,13,0.00
2013-11-15,29.0,23.8,21.0,22.0,20.0,15.0,96,85,59,29.92,29.60,10,4,18,0.00
2013-11-16,25.0,23.2,21.0,24.0,20.3,-99.9,94,92,93,29.76,29.55,9,8,17,0.00
2013-11-17,31.0,25.2,21.0,30.0,23.9,20.0,96,94,93,30.00,29.78,7,5,11,0.00
2013-11-18,32.0,29.2,27.0,29.0,27.2,25.0,96,91,84,29.99,29.82,9,8,15,0.00
2013-11-19,32.0,31.2,29.0,32.0,30.4,29.0,99,97,96,29.83,29.77,9,7,16,0.00
2013-11-20,30.0,24.1,12.0,30.0,23.1,10.0,99,95,89,30.00,29.79,4,0,8,0.00
2013-11-21,24.0,14.2,8.0,19.0,9.4,1.0,92,83,36,30.34,30.00,8,2,15,0.00
2013-11-22,33.0,27.4,22.0,11.0,8.3,4.0,54,44,35,30.40,30.30,8,5,13,0.00
2013-11-23,40.0,32.4,27.0,15.0,10.1,-99.9,58,42,17,30.30,30.17,9,6,13,0.00
2013-11-24,51.0,46.8,39.0,0.0,-6.3,-13.0,13,10,7,30.25,30.16,4,2,10,0.00
2013-11-25,52.0,47.3,42.0,5.0,-0.8,-8.0,21,13,10,30.32,30.27,5,3,10,0.00
2013-11-26,42.0,38.4,34.0,19.0,11.0,6.0,53,32,23,30.26,30.07,6,4,11,0.00
2013-11-27,41.0,36.4,33.0,20.0,17.6,15.0,54,46,41,30.06,29.95,5,4,10,0.00
2013-11-28,45.0,39.7,36.0,24.0,18.5,16.0,55,42,32,30.16,30.00,3,2,8,0.00
2013-11-29,43.0,39.4,37.0,25.0,17.6,9.0,60,41,24,30.27,30.18,3,2,7,0.00
2013-11-30,40.0,35.1,32.0,34.0,29.0,-99.9,96,82,63,30.33,30.25,5,2,10,0.00
2013-12-1,35.0,32.9,31.0,35.0,32.5,31.0,98,98,96,30.30,30.10,10,9,16,0.00
2013-12-2,31.0,25.2,13.0,31.0,24.3,10.0,99,96,89,30.07,29.76,10,5,17,0.00
2013-12-3,15.0,10.3,3.0,13.0,7.8,-1.0,90,88,85,29.78,29.73,0,0,0,0.00
2013-12-4,24.0,7.4,3.0,22.0,4.3,-1.0,92,87,85,29.85,29.79,0,0,0,0.00
2013-12-5,18.0,8.8,2.0,16.0,5.8,-1.0,91,87,84,29.85,29.77,0,0,0,0.00
2013-12-6,16.0,12.0,6.0,14.0,9.5,3.0,91,89,84,29.77,29.51,0,0,0,0.00
2013-12-7,11.0,5.6,1.0,9.0,0.9,-99.9,89,84,84,29.89,29.49,0,0,0,0.00
2013-12-8,22.0,10.5,0.0,18.0,6.1,-4.0,85,82,76,30.16,29.89,0,0,0,0.00
2013-12-9,32.0,24.0,10.0,24.0,15.2,5.0,84,69,42,30.28,30.17,1,0,9,0.00
2013-12-10,35.0,28.8,24.0,24.0,18.3,10.0,82,64,45,30.29,30.19,3,2,13,0.00
2013-12-11,40.0,32.9,28.0,24.0,15.9,9.0,58,49,39,30.21,30.16,5,4,9,0.00
2013-12-12,34.0,29.4,23.0,22.0,16.8,10.0,94,60,37,30.16,30.07,8,6,15,0.00
2013-12-13,34.0,29.3,24.0,33.0,26.6,21.0,96,90,58,30.34,30.10,6,2,10,0.00
2013-12-14,48.0,41.0,43.0,4.0,-10.5,-99.9,19,14,15,30.42,30.40,5,4,9,0.00
2013-12-15,47.0,44.5,41.0,24.0,4.9,-14.0,50,23,8,30.42,30.40,4,3,7,0.00
2013-12-16,52.0,48.3,44.0,20.0,5.7,-4.0,35,17,12,30.43,30.37,4,3,7,0.00
2013-12-17,50.0,45.4,36.0,11.0,6.9,-1.0,33,20,12,30.33,30.13,8,6,13,0.00
2013-12-18,36.0,29.7,20.0,23.0,17.5,7.0,95,64,31,30.10,29.77,6,4,12,0.00
2013-12-19,24.0,16.5,11.0,15.0,6.4,-9.0,89,68,23,29.95,29.76,5,3,12,0.00
2013-12-20,36.0,29.7,25.0,33.0,24.2,-17.0,96,84,13,29.98,29.89,9,4,17,0.00
2013-12-21,35.0,29.1,28.0,30.0,25.4,-99.9,96,90,76,30.16,29.89,7,2,21,0.00
2013-12-22,35.0,33.4,32.0,34.0,30.6,16.0,95,90,49,30.32,30.16,9,5,17,0.00
2013-12-23,37.0,33.4,29.0,34.0,27.3,2.0,98,82,23,30.39,30.35,9,7,15,0.00
2013-12-24,29.0,28.0,27.0,27.0,17.0,8.0,96,66,41,30.40,30.36,7,5,11,0.00
2013-12-25,52.0,47.4,41.0,2.0,-5.8,-18.0,12,10,7,30.43,30.40,4,2,8,0.00
2013-12-26,52.0,48.8,45.0,24.0,15.8,-2.0,42,27,12,30.39,30.31,5,4,9,0.00
2013-12-27,45.0,38.0,32.0,13.0,9.4,2.0,44,30,24,30.28,30.16,5,4,10,0.00
2013-12-28,35.0,30.0,27.0,21.0,5.1,-99.9,73,38,20,30.31,30.20,6,3,12,0.00
2013-12-29,46.0,38.3,30.0,27.0,11.0,-15.0,62,34,10,30.32,30.24,6,3,9,0.00
2013-12-30,43.0,39.9,35.0,27.0,16.9,0.0,56,39,22,30.24,30.18,6,4,11,0.00
2013-12-31,40.0,36.6,34.0,28.0,11.9,0.0,74,39,22,30.28,30.20,6,4,11,0.00
2014-1-2,48.0,42.3,35.0,27.0,22.3,5.0,66,45,21,30.28,30.12,6,4,11,0.00